Time;durP1;ratioP1;P1;durP2;ratioP2;P2;SDS_P1;SDS_P2;PMS_P1;PMS_P2;Temp;Humidity;BMP_temperature;BMP_pressure;BME280_temperature;BME280_humidity;BME280_pressure;Samples;Min_cycle;Max_cycle;Signal;HPM_P1;HPM_P2
2024/03/29 00:02:15;;;;;;;3.30;1.00;;;;;;;11.90;43.99;95253.22;5042444;28;20400;-77
2024/03/29 00:04:40;;;;;;;1.25;0.50;;;;;;;11.97;43.49;95243.13;5032490;28;20110;-79
2024/03/29 00:07:06;;;;;;;1.10;0.40;;;;;;;12.06;43.20;95245.78;5042426;28;20246;-78
2024/03/29 00:09:31;;;;;;;1.27;0.40;;;;;;;11.97;44.33;95247.59;5013560;28;20043;-78
2024/03/29 00:11:57;;;;;;;1.38;0.45;;;;;;;12.03;44.02;95251.63;5043050;28;20040;-78
2024/03/29 00:14:22;;;;;;;1.38;0.43;;;;;;;12.03;44.04;95250.84;5023938;28;20033;-78
2024/03/29 00:16:47;;;;;;;1.92;0.50;;;;;;;12.03;43.55;95251.63;5024996;28;20471;-78
2024/03/29 00:19:13;;;;;;;2.80;0.50;;;;;;;12.04;42.99;95229.66;5029753;28;20061;-78
2024/03/29 00:21:38;;;;;;;1.23;0.55;;;;;;;12.06;43.60;95230.13;5025656;28;20082;-78
2024/03/29 00:24:03;;;;;;;2.10;0.50;;;;;;;12.03;43.48;95229.97;5029590;28;20040;-79
2024/03/29 00:26:29;;;;;;;1.52;0.47;;;;;;;12.07;44.28;95221.25;5032448;28;20048;-78
2024/03/29 00:28:55;;;;;;;4.00;0.50;;;;;;;12.06;44.15;95216.31;5047850;28;20036;-78
2024/03/29 00:31:20;;;;;;;3.30;0.70;;;;;;;12.01;43.95;95204.19;5018101;28;20028;-78
2024/03/29 00:33:46;;;;;;;1.13;0.60;;;;;;;11.94;44.29;95190.81;5046998;28;20024;-78
2024/03/29 00:36:11;;;;;;;1.65;0.70;;;;;;;11.95;44.42;95187.16;5026256;28;20440;-82
2024/03/29 00:38:36;;;;;;;1.73;0.50;;;;;;;11.90;44.87;95180.19;5017618;28;20111;-82
2024/03/29 00:41:02;;;;;;;2.15;0.60;;;;;;;11.89;44.64;95183.09;5013558;28;20032;-82
2024/03/29 00:43:30;;;;;;;0.82;0.40;;;;;;;11.95;45.33;95181.94;5007379;28;21154;-82
2024/03/29 00:45:55;;;;;;;2.40;0.60;;;;;;;11.83;44.63;95174.66;5017170;28;20485;-79
2024/03/29 00:48:21;;;;;;;1.15;0.47;;;;;;;11.79;44.59;95164.06;5044623;28;20060;-77
2024/03/29 00:50:46;;;;;;;2.28;0.50;;;;;;;11.84;44.98;95155.34;5018773;28;20696;-78
2024/03/29 00:53:11;;;;;;;1.25;0.60;;;;;;;11.91;45.14;95160.13;5009706;28;20036;-78
2024/03/29 00:55:37;;;;;;;1.60;0.60;;;;;;;11.89;44.16;95162.22;5048419;28;20107;-78
2024/03/29 00:58:02;;;;;;;2.45;0.60;;;;;;;11.86;45.56;95165.44;5030134;28;20032;-79
2024/03/29 01:00:28;;;;;;;1.55;0.60;;;;;;;11.91;44.79;95154.91;5013108;28;20089;-78
2024/03/29 01:02:53;;;;;;;1.27;0.60;;;;;;;11.95;44.50;95148.03;5017751;28;20039;-78
2024/03/29 01:05:18;;;;;;;1.95;0.50;;;;;;;12.03;45.12;95139.47;5021420;28;20032;-78
2024/03/29 01:07:44;;;;;;;2.75;1.35;;;;;;;12.02;44.52;95130.09;5039892;28;20029;-78
2024/03/29 01:10:09;;;;;;;1.60;0.38;;;;;;;12.10;44.07;95123.38;5038670;28;20036;-78
2024/03/29 01:12:35;;;;;;;1.30;0.40;;;;;;;12.09;44.09;95127.81;5043075;28;20032;-77
2024/03/29 01:15:02;;;;;;;0.60;0.40;;;;;;;12.15;43.66;95137.03;5015394;28;20381;-78
2024/03/29 01:17:28;;;;;;;1.35;0.50;;;;;;;12.20;43.74;95143.16;5041154;28;20032;-77
2024/03/29 01:19:53;;;;;;;3.35;0.45;;;;;;;12.28;43.89;95158.06;5021795;28;20767;-78
2024/03/29 01:22:19;;;;;;;1.73;0.57;;;;;;;12.33;43.51;95174.34;5002605;28;20121;-78
2024/03/29 01:24:46;;;;;;;1.60;0.82;;;;;;;12.38;42.95;95163.00;5033659;28;20036;-78
2024/03/29 01:27:12;;;;;;;0.90;0.50;;;;;;;12.32;43.84;95151.94;5009579;28;20029;-78
2024/03/29 01:29:37;;;;;;;2.00;0.50;;;;;;;12.50;42.46;95181.44;5023370;28;20488;-79
2024/03/29 01:32:03;;;;;;;2.28;0.73;;;;;;;12.52;42.59;95173.31;5061068;28;20440;-79
2024/03/29 01:34:28;;;;;;;0.77;0.47;;;;;;;12.52;41.89;95179.28;5024199;28;20166;-78
2024/03/29 01:36:54;;;;;;;1.25;0.50;;;;;;;12.51;42.32;95156.13;5055426;28;20040;-78
2024/03/29 01:39:21;;;;;;;1.05;0.52;;;;;;;12.56;42.56;95163.81;5038088;28;20037;-78
2024/03/29 01:41:46;;;;;;;1.65;0.50;;;;;;;12.60;42.14;95154.28;5039231;28;20051;-79
2024/03/29 01:44:12;;;;;;;1.02;0.50;;;;;;;12.63;42.56;95161.50;5016925;28;20532;-78
2024/03/29 01:46:37;;;;;;;1.42;0.52;;;;;;;12.66;42.37;95145.22;5027757;28;20048;-81
2024/03/29 01:49:04;;;;;;;1.45;0.63;;;;;;;12.63;42.79;95147.66;5039579;28;20040;-82
2024/03/29 01:51:30;;;;;;;2.45;0.80;;;;;;;12.62;43.42;95153.97;5023419;28;20400;-82
2024/03/29 01:53:55;;;;;;;1.55;0.60;;;;;;;12.62;42.84;95133.09;5010838;28;20029;-82
2024/03/29 01:56:22;;;;;;;1.75;0.40;;;;;;;12.66;43.40;95141.84;5020567;28;20043;-77
2024/03/29 01:58:49;;;;;;;1.65;0.50;;;;;;;12.53;42.93;95114.81;5040330;28;20396;-79
2024/03/29 02:01:16;;;;;;;1.00;0.50;;;;;;;12.52;43.00;95129.69;5024881;28;20036;-77
2024/03/29 02:03:42;;;;;;;1.50;0.60;;;;;;;12.61;42.78;95128.94;5034491;28;20041;-78
2024/03/29 02:06:10;;;;;;;1.70;0.50;;;;;;;12.63;43.18;95117.13;5037010;28;20036;-79
2024/03/29 02:08:36;;;;;;;0.93;0.50;;;;;;;12.59;43.70;95131.84;5028216;28;20079;-78
2024/03/29 02:11:03;;;;;;;1.10;0.50;;;;;;;12.65;42.87;95135.09;5001244;28;20032;-79
2024/03/29 02:13:29;;;;;;;1.15;0.70;;;;;;;12.63;42.46;95132.78;5012450;28;20025;-78
2024/03/29 02:15:54;;;;;;;1.08;0.45;;;;;;;12.73;42.54;95152.56;5025222;28;20047;-79
2024/03/29 02:18:20;;;;;;;1.65;0.40;;;;;;;12.72;43.14;95157.03;5024314;28;20121;-78
2024/03/29 02:20:45;;;;;;;1.85;0.70;;;;;;;12.59;43.48;95125.88;5022596;28;20059;-78
2024/03/29 02:23:17;;;;;;;2.42;0.60;;;;;;;12.71;43.51;95131.22;5026949;28;20150;-77
2024/03/29 02:25:42;;;;;;;1.52;0.52;;;;;;;12.69;43.19;95120.34;5019746;28;20040;-78
2024/03/29 02:28:07;;;;;;;1.38;0.30;;;;;;;12.72;43.46;95128.31;5002136;28;20044;-77
2024/03/29 02:30:33;;;;;;;1.10;0.57;;;;;;;12.81;42.29;95133.53;5040062;28;20063;-78
2024/03/29 02:32:59;;;;;;;0.63;0.40;;;;;;;12.82;42.98;95123.88;5010799;28;20116;-78
2024/03/29 02:35:25;;;;;;;1.10;0.30;;;;;;;12.82;42.63;95155.22;5038077;28;20075;-78
2024/03/29 02:37:51;;;;;;;1.42;0.40;;;;;;;12.79;42.24;95164.41;5008987;28;20468;-79
2024/03/29 02:40:16;;;;;;;0.82;0.30;;;;;;;12.84;42.21;95164.25;5014144;28;20045;-78
2024/03/29 02:42:42;;;;;;;0.20;0.20;;;;;;;12.85;41.58;95160.59;5035661;28;20094;-78
2024/03/29 02:45:08;;;;;;;0.80;0.40;;;;;;;12.95;42.43;95174.41;5041366;28;20107;-78
2024/03/29 02:47:33;;;;;;;1.00;0.30;;;;;;;12.86;44.22;95166.56;5023489;28;20044;-77
2024/03/29 02:49:58;;;;;;;0.98;0.43;;;;;;;12.78;42.21;95162.09;5001209;28;20025;-78
2024/03/29 02:52:24;;;;;;;1.77;0.40;;;;;;;12.72;43.64;95156.28;5000614;28;20021;-79
2024/03/29 02:54:49;;;;;;;1.33;0.30;;;;;;;12.75;43.41;95163.50;5029557;28;20033;-77
2024/03/29 02:57:14;;;;;;;2.25;0.45;;;;;;;12.79;43.54;95172.25;5036964;28;20075;-78
2024/03/29 02:59:40;;;;;;;0.25;0.20;;;;;;;12.77;45.80;95169.19;5005428;28;20024;-78
2024/03/29 03:02:06;;;;;;;1.50;0.45;;;;;;;12.82;46.71;95176.88;5019652;28;20040;-78
2024/03/29 03:04:31;;;;;;;1.17;0.30;;;;;;;12.65;48.94;95159.34;5019553;28;20128;-78
2024/03/29 03:10:55;;;;;;;1.20;0.40;;;;;;;12.54;49.40;95171.16;5021521;28;20378;-78
2024/03/29 03:12:29;;;;;;;0.70;0.30;;;;;;;12.66;51.60;95167.94;5046978;28;20553;-78
2024/03/29 03:14:54;;;;;;;0.75;0.30;;;;;;;12.54;51.85;95166.72;5019198;28;20043;-79
2024/03/29 03:17:20;;;;;;;0.73;0.40;;;;;;;12.60;51.79;95172.56;5037791;28;20057;-79
2024/03/29 03:19:45;;;;;;;1.27;0.60;;;;;;;12.57;51.72;95175.00;5035774;28;20120;-79
2024/03/29 03:22:10;;;;;;;1.10;0.30;;;;;;;12.51;50.53;95177.75;5036018;28;20029;-78
2024/03/29 03:24:36;;;;;;;1.85;0.47;;;;;;;12.60;52.03;95183.00;5010241;28;20036;-78
2024/03/29 03:27:01;;;;;;;1.08;0.30;;;;;;;12.48;52.86;95194.03;5036941;28;20041;-78
2024/03/29 03:29:26;;;;;;;1.10;0.40;;;;;;;12.47;53.47;95207.38;5032346;28;20481;-79
2024/03/29 03:31:52;;;;;;;3.22;0.30;;;;;;;12.52;54.43;95208.00;5034622;28;20021;-81
2024/03/29 03:34:17;;;;;;;2.15;0.60;;;;;;;12.37;53.66;95205.81;5032869;28;20032;-83
2024/03/29 03:36:42;;;;;;;1.52;0.30;;;;;;;12.30;54.67;95200.28;5011513;28;20067;-83
2024/03/29 03:39:08;;;;;;;1.90;0.40;;;;;;;12.20;55.26;95218.81;5037977;28;20111;-82
2024/03/29 03:41:33;;;;;;;0.47;0.40;;;;;;;12.26;56.24;95222.84;5011570;28;20376;-83
2024/03/29 03:43:58;;;;;;;0.75;0.40;;;;;;;12.13;57.31;95222.66;5020715;28;20037;-84
2024/03/29 03:46:24;;;;;;;1.25;0.30;;;;;;;11.85;56.90;95224.66;5027236;28;20060;-78
2024/03/29 03:48:49;;;;;;;1.00;0.40;;;;;;;11.89;58.35;95215.19;5020710;28;20036;-79
2024/03/29 03:51:14;;;;;;;1.33;0.40;;;;;;;11.89;58.59;95230.03;5030337;28;20075;-79
2024/03/29 03:53:40;;;;;;;2.25;0.40;;;;;;;11.83;59.34;95231.25;5034070;28;20028;-79
2024/03/29 03:56:05;;;;;;;1.30;0.38;;;;;;;11.79;59.36;95237.06;5034418;28;20093;-79
2024/03/29 03:58:31;;;;;;;0.88;0.30;;;;;;;11.84;59.97;95233.56;5033419;28;20025;-79
2024/03/29 04:00:56;;;;;;;3.17;0.93;;;;;;;11.79;59.85;95231.84;5000611;28;20028;-79
2024/03/29 04:03:22;;;;;;;1.08;0.63;;;;;;;11.80;60.68;95235.97;5036046;28;20033;-79
2024/03/29 04:05:47;;;;;;;1.48;0.50;;;;;;;11.81;61.33;95218.50;5017397;28;20032;-79
2024/03/29 04:08:14;;;;;;;1.75;0.38;;;;;;;11.76;61.38;95216.78;5031737;28;20059;-79
2024/03/29 04:10:39;;;;;;;1.25;0.50;;;;;;;11.76;61.29;95216.78;5040058;28;20086;-79
2024/03/29 04:13:05;;;;;;;1.05;0.50;;;;;;;11.72;61.38;95202.81;5029096;28;20028;-80
2024/03/29 04:15:32;;;;;;;1.10;0.45;;;;;;;11.68;62.01;95224.56;5018994;28;20033;-78
2024/03/29 04:17:58;;;;;;;1.42;0.35;;;;;;;11.72;62.21;95223.69;5008936;28;20040;-83
2024/03/29 04:20:24;;;;;;;1.25;0.80;;;;;;;11.67;61.58;95213.38;5028489;28;20035;-82
2024/03/29 04:22:49;;;;;;;1.08;0.47;;;;;;;11.62;62.65;95216.13;5026997;28;20397;-80
2024/03/29 04:25:14;;;;;;;0.82;0.43;;;;;;;11.71;61.89;95210.94;5018054;28;20401;-83
2024/03/29 04:27:40;;;;;;;1.58;0.70;;;;;;;11.69;62.62;95213.09;5019740;28;20071;-81
2024/03/29 04:30:06;;;;;;;1.35;0.55;;;;;;;11.63;62.53;95202.00;5007556;28;20384;-84
2024/03/29 04:32:32;;;;;;;0.47;0.35;;;;;;;11.62;62.83;95198.63;5034016;28;20033;-82
2024/03/29 04:34:57;;;;;;;2.97;0.60;;;;;;;11.62;62.21;95200.47;5033358;28;20040;-82
2024/03/29 04:37:22;;;;;;;1.70;0.52;;;;;;;11.64;62.44;95213.97;5019317;28;20038;-83
2024/03/29 04:39:48;;;;;;;2.22;0.40;;;;;;;11.56;63.38;95199.81;5038614;28;20123;-83
2024/03/29 04:42:14;;;;;;;1.65;0.60;;;;;;;11.65;62.56;95207.69;5003887;28;20116;-83
2024/03/29 04:44:40;;;;;;;1.08;0.43;;;;;;;11.64;62.97;95197.56;5019761;28;20032;-82
2024/03/29 04:47:05;;;;;;;1.13;0.60;;;;;;;11.49;63.67;95207.28;5016005;28;20037;-83
2024/03/29 04:49:36;;;;;;;1.50;0.50;;;;;;;11.57;63.15;95203.97;5027206;28;20036;-83
2024/03/29 04:52:02;;;;;;;1.10;0.50;;;;;;;11.53;62.64;95197.03;5036275;28;20538;-83
2024/03/29 04:54:28;;;;;;;0.47;0.38;;;;;;;11.54;63.18;95194.13;5009497;28;20059;-81
2024/03/29 04:56:53;;;;;;;1.17;0.40;;;;;;;11.61;63.15;95199.69;5025857;28;20131;-82
2024/03/29 04:59:20;;;;;;;2.22;0.60;;;;;;;11.61;62.88;95204.91;5034511;28;20036;-83
2024/03/29 05:01:50;;;;;;;1.67;0.60;;;;;;;11.60;63.45;95194.78;5001452;28;20036;-84
2024/03/29 05:04:18;;;;;;;1.25;0.85;;;;;;;11.55;63.12;95200.91;5005291;28;20634;-83
2024/03/29 05:06:46;;;;;;;0.93;0.40;;;;;;;11.59;63.44;95211.50;5026728;28;20075;-84
2024/03/29 05:09:12;;;;;;;1.15;0.60;;;;;;;11.55;64.04;95210.53;5025343;28;20048;-83
2024/03/29 05:11:37;;;;;;;1.33;0.50;;;;;;;11.55;63.85;95207.94;5058393;28;20401;-79
2024/03/29 05:14:04;;;;;;;2.33;0.57;;;;;;;11.60;64.24;95218.22;5008267;28;20081;-79
2024/03/29 05:16:29;;;;;;;1.85;0.52;;;;;;;11.51;63.93;95201.78;5032771;28;20374;-80
2024/03/29 05:18:54;;;;;;;0.68;0.50;;;;;;;11.52;64.27;95205.94;5061395;28;20043;-79
2024/03/29 05:21:20;;;;;;;1.00;0.73;;;;;;;11.59;63.85;95216.72;5010052;28;20036;-79
2024/03/29 05:23:45;;;;;;;1.23;0.47;;;;;;;11.58;64.53;95209.94;5000525;28;20379;-79
2024/03/29 05:26:10;;;;;;;0.55;0.50;;;;;;;11.53;64.02;95210.88;5053519;28;20029;-80
2024/03/29 05:28:36;;;;;;;1.50;0.90;;;;;;;11.55;64.33;95215.75;5035439;28;20119;-83
2024/03/29 05:31:12;;;;;;;1.42;0.35;;;;;;;11.67;63.45;95220.41;5014057;28;20033;-82
2024/03/29 05:33:37;;;;;;;1.60;0.40;;;;;;;11.56;63.93;95227.72;5009863;28;20505;-82
2024/03/29 05:36:04;;;;;;;0.70;0.45;;;;;;;11.55;63.50;95234.00;5054413;28;20143;-83
2024/03/29 05:38:30;;;;;;;1.25;0.55;;;;;;;11.62;63.22;95239.56;5027318;28;20055;-82
2024/03/29 05:40:55;;;;;;;0.75;0.40;;;;;;;11.54;64.01;95235.84;5027011;28;20028;-83
2024/03/29 05:43:21;;;;;;;0.75;0.40;;;;;;;11.54;63.35;95246.25;5027318;28;20029;-82
2024/03/29 05:45:46;;;;;;;1.10;0.50;;;;;;;11.51;63.55;95243.50;5035884;28;20389;-82
2024/03/29 05:48:12;;;;;;;1.10;0.52;;;;;;;11.50;63.77;95228.91;5045093;28;20107;-79
2024/03/29 05:50:37;;;;;;;1.15;0.55;;;;;;;11.50;63.37;95244.53;5037241;28;20401;-80
2024/03/29 05:53:03;;;;;;;0.82;0.52;;;;;;;11.43;63.47;95231.97;5026247;28;20665;-80
2024/03/29 05:55:29;;;;;;;1.27;0.50;;;;;;;11.55;63.62;95244.41;5009185;28;20450;-79
2024/03/29 05:57:54;;;;;;;1.33;0.57;;;;;;;11.54;63.27;95250.72;5018966;28;20028;-80
2024/03/29 06:00:20;;;;;;;1.27;0.55;;;;;;;11.44;63.85;95243.91;5006766;28;20508;-80
2024/03/29 06:02:45;;;;;;;1.23;0.60;;;;;;;11.54;63.28;95246.25;5035511;28;20052;-80
2024/03/29 06:05:11;;;;;;;1.50;0.47;;;;;;;11.46;64.23;95243.59;5040856;28;20396;-79
2024/03/29 06:07:36;;;;;;;1.17;0.40;;;;;;;11.38;64.05;95239.91;5025330;28;20025;-80
2024/03/29 06:10:05;;;;;;;1.23;0.50;;;;;;;11.49;63.80;95261.25;5036331;28;20036;-80
2024/03/29 06:12:34;;;;;;;0.88;0.47;;;;;;;11.52;63.68;95245.78;5005555;28;20025;-80
2024/03/29 06:17:45;;;;;;;1.42;0.60;;;;;;;11.58;64.17;95270.69;5037481;28;20036;-79
2024/03/29 06:20:11;;;;;;;0.88;0.47;;;;;;;11.62;63.43;95271.63;5028481;28;20063;-80
2024/03/29 06:22:36;;;;;;;1.35;0.50;;;;;;;11.55;64.04;95278.31;5030457;28;20553;-80
2024/03/29 06:25:04;;;;;;;0.73;0.52;;;;;;;11.43;63.93;95258.78;5014773;28;20221;-80
2024/03/29 06:27:37;;;;;;;0.95;0.45;;;;;;;11.63;64.20;95275.00;5009663;28;20028;-80
2024/03/29 06:30:03;;;;;;;1.15;0.38;;;;;;;11.57;63.97;95271.75;5021324;28;20060;-80
2024/03/29 06:32:29;;;;;;;1.08;0.70;;;;;;;11.54;63.54;95276.78;5027484;28;20044;-79
2024/03/29 06:34:55;;;;;;;2.65;0.63;;;;;;;11.34;63.16;95255.31;5042344;28;20028;-81
2024/03/29 06:37:21;;;;;;;1.65;0.45;;;;;;;11.48;63.90;95277.94;5036532;28;20032;-81
2024/03/29 06:39:48;;;;;;;0.40;0.30;;;;;;;11.44;63.49;95269.97;5022668;28;20033;-80
2024/03/29 06:42:13;;;;;;;1.40;0.63;;;;;;;11.36;64.36;95255.03;5019962;28;20591;-81
2024/03/29 06:44:39;;;;;;;0.82;0.70;;;;;;;11.41;64.59;95242.66;5040138;28;20120;-79
2024/03/29 06:47:04;;;;;;;0.80;0.50;;;;;;;11.49;64.25;95248.22;5022442;28;20054;-81
2024/03/29 06:49:30;;;;;;;2.15;0.75;;;;;;;11.47;64.15;95232.88;5035254;28;20112;-80
2024/03/29 06:51:57;;;;;;;1.27;0.50;;;;;;;11.48;64.31;95242.25;5062330;28;20033;-80
2024/03/29 06:54:26;;;;;;;1.48;0.70;;;;;;;11.55;63.96;95239.22;5014192;28;20023;-79
2024/03/29 06:56:52;;;;;;;0.70;0.30;;;;;;;11.60;63.57;95231.25;5041957;28;20033;-79
2024/03/29 06:59:18;;;;;;;1.50;0.40;;;;;;;11.41;63.98;95206.19;5036024;28;20029;-79
2024/03/29 07:01:44;;;;;;;0.70;0.50;;;;;;;11.60;63.60;95232.06;5025965;28;20032;-79
2024/03/29 07:04:09;;;;;;;1.17;0.35;;;;;;;11.54;64.36;95215.00;5033971;28;20056;-79
2024/03/29 07:06:37;;;;;;;0.82;0.43;;;;;;;11.59;63.97;95216.72;5021223;28;20503;-79
2024/03/29 07:09:03;;;;;;;0.75;0.60;;;;;;;11.66;63.73;95227.47;5044685;28;20033;-80
2024/03/29 07:11:29;;;;;;;0.70;0.40;;;;;;;11.55;64.05;95215.75;5030431;28;20028;-80
2024/03/29 07:13:54;;;;;;;0.40;0.30;;;;;;;11.67;63.66;95218.59;5012955;28;20031;-80
2024/03/29 07:16:19;;;;;;;1.48;0.50;;;;;;;11.70;63.34;95214.63;5029860;28;20345;-80
2024/03/29 07:18:45;;;;;;;3.35;1.17;;;;;;;11.68;63.14;95219.34;5038284;28;20033;-80
2024/03/29 07:21:10;;;;;;;1.13;0.70;;;;;;;11.72;64.19;95208.03;5037192;28;20041;-80
2024/03/29 07:23:35;;;;;;;1.83;0.38;;;;;;;11.77;64.15;95218.34;5022053;28;21418;-80
2024/03/29 07:26:03;;;;;;;0.75;0.50;;;;;;;11.84;63.95;95215.31;5042411;28;20036;-80
2024/03/29 07:28:29;;;;;;;1.70;0.57;;;;;;;11.84;64.44;95217.91;5020950;28;20043;-79
2024/03/29 07:30:54;;;;;;;0.70;0.50;;;;;;;11.97;63.84;95203.25;5031245;28;20341;-79
2024/03/29 07:33:23;;;;;;;1.05;0.50;;;;;;;11.89;63.70;95198.75;5004007;28;20369;-80
2024/03/29 07:35:49;;;;;;;2.38;0.55;;;;;;;11.90;64.28;95214.09;5025486;28;20024;-79
2024/03/29 07:38:17;;;;;;;1.33;0.50;;;;;;;11.92;64.09;95219.78;5023403;28;20077;-79
2024/03/29 07:40:43;;;;;;;1.35;0.40;;;;;;;11.87;63.11;95219.13;5027984;28;20047;-80
2024/03/29 07:43:09;;;;;;;0.50;0.30;;;;;;;11.85;64.28;95229.88;5032444;28;20043;-80
2024/03/29 07:45:34;;;;;;;1.33;0.60;;;;;;;11.97;63.51;95226.72;5013396;28;20389;-80
2024/03/29 07:48:00;;;;;;;1.88;0.50;;;;;;;11.95;63.22;95221.06;5021191;28;20028;-79
2024/03/29 07:50:25;;;;;;;1.20;0.40;;;;;;;12.09;63.71;95237.34;5039837;28;20325;-80
2024/03/29 07:52:51;;;;;;;1.73;0.50;;;;;;;12.07;63.82;95242.13;5020417;28;20021;-80
2024/03/29 07:55:16;;;;;;;1.40;0.77;;;;;;;12.10;64.10;95236.31;5031633;28;20037;-79
2024/03/29 07:57:42;;;;;;;2.60;0.57;;;;;;;12.06;63.84;95243.16;5013892;28;20029;-80
2024/03/29 08:00:08;;;;;;;0.77;0.50;;;;;;;12.12;64.00;95241.22;5018415;28;20032;-80
2024/03/29 08:02:35;;;;;;;1.92;0.60;;;;;;;12.17;64.73;95252.28;5027377;28;20511;-79
2024/03/29 08:05:01;;;;;;;1.52;0.73;;;;;;;12.15;64.93;95257.03;5036629;28;20041;-79
2024/03/29 08:07:26;;;;;;;1.88;0.98;;;;;;;12.13;65.26;95238.31;5041528;28;20028;-80
2024/03/29 08:09:51;;;;;;;1.05;0.60;;;;;;;12.30;64.47;95260.31;5039431;28;20065;-80
2024/03/29 08:12:17;;;;;;;1.85;0.60;;;;;;;12.38;64.83;95256.97;5038327;28;20024;-80
2024/03/29 08:14:42;;;;;;;2.28;0.80;;;;;;;12.21;65.49;95238.63;5022703;28;20045;-80
2024/03/29 08:17:09;;;;;;;3.83;0.90;;;;;;;12.38;65.63;95267.41;5010671;28;20029;-79
2024/03/29 08:19:35;;;;;;;1.13;0.63;;;;;;;12.35;65.69;95260.16;5054655;28;20047;-79
2024/03/29 08:22:01;;;;;;;1.85;0.50;;;;;;;12.47;65.49;95265.56;5018206;28;20074;-82
2024/03/29 08:24:27;;;;;;;0.80;0.57;;;;;;;12.50;65.89;95259.00;5028795;28;20565;-81
2024/03/29 08:26:54;;;;;;;1.75;0.50;;;;;;;12.61;65.22;95262.06;5039302;28;20552;-81
2024/03/29 08:29:19;;;;;;;3.63;0.73;;;;;;;12.64;66.23;95282.38;5005584;28;20033;-80
2024/03/29 08:31:44;;;;;;;1.88;0.68;;;;;;;12.76;66.16;95281.78;5036174;28;20038;-81
2024/03/29 08:34:13;;;;;;;1.23;0.82;;;;;;;12.79;65.64;95291.63;5018351;28;20054;-80
2024/03/29 08:36:38;;;;;;;2.85;0.70;;;;;;;12.77;66.29;95289.31;5033873;28;20442;-80
2024/03/29 08:39:04;;;;;;;1.15;0.70;;;;;;;12.86;65.94;95297.16;5032923;28;20037;-80
2024/03/29 08:41:29;;;;;;;1.45;0.65;;;;;;;12.85;65.59;95301.63;5020085;28;20519;-80
2024/03/29 08:43:54;;;;;;;2.30;0.90;;;;;;;12.87;65.32;95299.47;5003159;28;20370;-80
2024/03/29 08:46:20;;;;;;;2.55;1.00;;;;;;;12.99;65.62;95300.69;5011901;28;20036;-80
2024/03/29 08:48:45;;;;;;;3.03;0.80;;;;;;;13.16;66.14;95320.84;5024131;28;20571;-80
2024/03/29 08:51:11;;;;;;;3.53;1.15;;;;;;;13.18;65.43;95318.69;5035997;28;20068;-80
2024/03/29 08:53:36;;;;;;;3.03;1.15;;;;;;;13.09;65.69;95303.00;5026251;28;20032;-80
2024/03/29 08:56:02;;;;;;;1.98;1.00;;;;;;;13.20;65.70;95322.56;5027310;28;20060;-79
2024/03/29 08:58:27;;;;;;;1.95;1.40;;;;;;;13.17;65.28;95327.63;5037054;28;20123;-80
2024/03/29 09:00:55;;;;;;;2.92;1.10;;;;;;;13.21;65.39;95334.56;5021383;28;20033;-80
2024/03/29 09:03:21;;;;;;;3.05;1.05;;;;;;;13.15;65.68;95332.41;5027003;28;20067;-80
2024/03/29 09:05:46;;;;;;;2.35;1.00;;;;;;;13.15;65.59;95330.53;5000725;28;20086;-81
2024/03/29 09:08:12;;;;;;;2.45;0.90;;;;;;;13.22;66.38;95340.56;5027873;28;20033;-80
2024/03/29 09:10:37;;;;;;;2.05;1.10;;;;;;;13.22;65.72;95351.75;5038917;28;20021;-80
2024/03/29 09:13:03;;;;;;;1.55;1.00;;;;;;;13.21;66.17;95352.06;5028940;28;20068;-80
2024/03/29 09:15:28;;;;;;;2.75;1.38;;;;;;;13.16;66.62;95357.44;5010094;28;20292;-81
2024/03/29 09:17:54;;;;;;;3.45;0.98;;;;;;;13.20;66.22;95372.22;5036579;28;20040;-81
2024/03/29 09:20:20;;;;;;;1.25;1.00;;;;;;;13.14;65.73;95370.03;5026797;28;20033;-80
2024/03/29 09:22:46;;;;;;;2.10;1.45;;;;;;;13.33;65.88;95367.19;5005307;28;20283;-80
2024/03/29 09:25:14;;;;;;;1.77;0.90;;;;;;;13.36;66.48;95371.81;5036797;28;20040;-81
2024/03/29 09:27:42;;;;;;;3.00;1.33;;;;;;;13.33;66.32;95370.56;5032140;28;20119;-80
2024/03/29 09:30:09;;;;;;;2.70;1.10;;;;;;;13.30;65.96;95382.38;5039364;28;20090;-80
2024/03/29 09:32:35;;;;;;;2.30;1.42;;;;;;;13.33;65.88;95382.88;5036616;28;20143;-78
2024/03/29 09:35:00;;;;;;;6.43;1.40;;;;;;;13.28;66.39;95394.19;5042010;28;20051;-80
2024/03/29 09:37:26;;;;;;;2.53;1.20;;;;;;;13.34;66.39;95382.56;5029730;28;20048;-81
2024/03/29 09:39:51;;;;;;;2.72;1.05;;;;;;;13.31;66.02;95380.53;5060445;28;20455;-80
2024/03/29 09:42:17;;;;;;;3.22;1.25;;;;;;;13.39;66.92;95381.66;5036603;28;20035;-81
2024/03/29 09:44:45;;;;;;;4.00;1.75;;;;;;;13.39;66.29;95392.88;5033190;28;20060;-80
2024/03/29 09:47:14;;;;;;;1.75;1.02;;;;;;;13.58;66.20;95403.03;5047742;28;20028;-81
2024/03/29 09:49:44;;;;;;;1.17;1.08;;;;;;;13.56;66.41;95389.50;5030425;28;20609;-81
2024/03/29 09:52:09;;;;;;;3.78;1.35;;;;;;;13.68;67.08;95407.97;5037516;28;20137;-80
2024/03/29 09:54:35;;;;;;;2.08;1.05;;;;;;;13.53;67.19;95397.94;5026740;28;20496;-80
2024/03/29 09:57:00;;;;;;;1.23;0.80;;;;;;;13.65;67.46;95385.03;5036741;28;20028;-80
2024/03/29 09:59:26;;;;;;;3.30;1.27;;;;;;;13.76;67.07;95377.66;5018757;28;20029;-81
2024/03/29 10:01:53;;;;;;;2.58;1.33;;;;;;;13.84;67.58;95387.34;5039630;28;20031;-80
2024/03/29 10:04:21;;;;;;;1.17;1.08;;;;;;;14.01;66.64;95391.78;5051876;28;20128;-80
2024/03/29 10:06:49;;;;;;;1.65;1.10;;;;;;;13.89;68.00;95396.88;5059717;28;20177;-80
2024/03/29 10:09:18;;;;;;;1.52;1.08;;;;;;;14.09;66.01;95392.09;5032075;28;20032;-81
2024/03/29 10:11:45;;;;;;;2.35;0.98;;;;;;;14.07;67.58;95392.41;5026266;28;20028;-80
2024/03/29 10:14:10;;;;;;;3.40;1.05;;;;;;;14.15;66.46;95399.47;5029627;28;20287;-81
2024/03/29 10:16:36;;;;;;;1.98;0.93;;;;;;;14.11;65.79;95385.47;5048927;28;20033;-79
2024/03/29 10:19:02;;;;;;;1.58;0.77;;;;;;;14.16;66.76;95377.47;5037739;28;20024;-81
2024/03/29 10:21:27;;;;;;;2.42;1.20;;;;;;;14.40;67.05;95384.78;5012664;28;20090;-81
2024/03/29 10:23:53;;;;;;;1.75;1.50;;;;;;;14.48;66.96;95382.44;5022255;28;20021;-80
2024/03/29 10:26:19;;;;;;;1.50;0.93;;;;;;;14.57;66.39;95364.88;5019909;28;20446;-80
2024/03/29 10:28:46;;;;;;;4.43;1.20;;;;;;;14.74;66.79;95349.09;5037958;28;20539;-80
2024/03/29 10:31:13;;;;;;;1.30;1.20;;;;;;;14.72;66.22;95340.81;5058141;28;20741;-81
2024/03/29 10:33:42;;;;;;;0.80;0.80;;;;;;;14.89;65.46;95347.81;5035872;28;20112;-80
2024/03/29 10:36:09;;;;;;;1.42;1.10;;;;;;;14.98;66.13;95350.38;5043772;28;20024;-79
2024/03/29 10:38:36;;;;;;;1.52;0.80;;;;;;;14.92;65.95;95354.25;5009681;28;20025;-80
2024/03/29 10:41:03;;;;;;;1.17;0.80;;;;;;;14.85;64.71;95335.66;5048787;28;20468;-79
2024/03/29 10:43:29;;;;;;;1.13;0.82;;;;;;;14.76;63.62;95354.03;5030549;28;20028;-81
2024/03/29 10:45:58;;;;;;;1.98;1.20;;;;;;;14.71;64.48;95352.34;5032608;28;20029;-81
2024/03/29 10:48:26;;;;;;;2.08;1.08;;;;;;;14.54;64.63;95371.50;5034208;28;20061;-80
2024/03/29 10:50:53;;;;;;;2.13;0.90;;;;;;;14.57;65.73;95376.09;5027109;28;20029;-80
2024/03/29 10:53:18;;;;;;;1.85;0.85;;;;;;;14.43;64.14;95344.91;5044825;28;20029;-80
2024/03/29 10:55:44;;;;;;;1.60;0.80;;;;;;;14.41;65.01;95356.75;5044688;28;20043;-80
2024/03/29 10:58:11;;;;;;;0.98;0.70;;;;;;;14.40;64.72;95361.22;5058639;28;20049;-81
2024/03/29 11:00:48;;;;;;;1.50;0.80;;;;;;;14.41;64.95;95361.97;5025029;28;20052;-80
2024/03/29 11:03:27;;;;;;;2.55;0.80;;;;;;;14.26;64.82;95350.19;5037127;28;20052;-80
2024/03/29 11:05:55;;;;;;;1.27;0.88;;;;;;;14.26;65.66;95354.63;5041557;28;20039;-82
2024/03/29 11:08:24;;;;;;;1.48;0.70;;;;;;;14.11;65.85;95342.84;5030700;28;20134;-81
2024/03/29 11:10:51;;;;;;;1.17;0.80;;;;;;;14.30;65.47;95369.41;5028596;28;20039;-82
2024/03/29 11:13:30;;;;;;;1.45;0.80;;;;;;;14.43;65.71;95378.94;5048856;28;20470;-81
2024/03/29 11:15:56;;;;;;;1.17;0.73;;;;;;;14.48;65.65;95401.56;5026421;28;20111;-81
2024/03/29 11:18:24;;;;;;;1.33;0.98;;;;;;;14.49;65.54;95404.94;5042274;28;20608;-82
2024/03/29 11:20:53;;;;;;;1.90;0.80;;;;;;;14.39;65.37;95427.00;5043699;28;20518;-81
2024/03/29 11:23:20;;;;;;;1.70;0.60;;;;;;;14.31;65.76;95410.22;5042665;28;20029;-81
2024/03/29 11:25:48;;;;;;;1.48;0.65;;;;;;;14.41;66.42;95414.34;5038866;28;20345;-81
2024/03/29 11:28:21;;;;;;;1.17;0.80;;;;;;;14.45;66.51;95409.28;5067575;28;20036;-82
2024/03/29 11:30:47;;;;;;;1.23;0.60;;;;;;;14.49;65.50;95407.56;5039654;28;20045;-81
2024/03/29 11:33:29;;;;;;;1.58;0.50;;;;;;;14.67;65.22;95422.19;5002474;28;20025;-80
2024/03/29 11:35:55;;;;;;;1.42;0.77;;;;;;;14.59;65.17;95428.22;5029764;28;20043;-81